Albany, New York
Traffic Map
Current Weather Conditions
Albany, New York
Overcast
Overcast

Feels Like: -2°
Wind Chill: -2° Ceiling: 7500
Heat Index: Visibility: 10mi
Dew Point: -4° Wind: 13mph
Humidity: 64% Direction: 290° (WNW)
Pressure: 29.95in Gusts: 0mph
Raw Report DataKALB 200251Z 29011KT 10SM OVC075 02/M04 A2995 RMK AO2 SLP143 T00221039 51022
Traffic Incident Summary
Active as of:
Severity:
Category:
InformationThere was an issue retrieving the traffic information for this location. Please try a different location or try again shortly.
Advertisements